Time;durP1;ratioP1;P1;durP2;ratioP2;P2;SDS_P1;SDS_P2;PMS_P1;PMS_P2;Temp;Humidity;BMP_temperature;BMP_pressure;BME280_temperature;BME280_humidity;BME280_pressure;Samples;Min_cycle;Max_cycle;Signal;HPM_P1;HPM_P2
2022/03/30 00:01:16;;;;;;;;;;;;;;;18.22;43.04;100892.53;5124436;28;19911;-56
2022/03/30 00:03:41;;;;;;;;;;;;;;;18.21;42.88;100883.63;5123414;28;20299;-57
2022/03/30 00:06:06;;;;;;;;;;;;;;;18.20;42.91;100881.09;5124304;28;19911;-57
2022/03/30 00:08:32;;;;;;;;;;;;;;;18.20;42.87;100883.78;5124157;28;19912;-57
2022/03/30 00:10:57;;;;;;;;;;;;;;;18.19;42.91;100880.25;5124812;28;19911;-57
2022/03/30 00:13:23;;;;;;;;;;;;;;;18.18;42.69;100873.19;5123795;28;19920;-54
2022/03/30 00:15:48;;;;;;;;;;;;;;;18.18;42.70;100872.34;5124701;28;20341;-57
2022/03/30 00:18:13;;;;;;;;;;;;;;;18.18;42.89;100875.91;5120968;28;19950;-57
2022/03/30 00:20:38;;;;;;;;;;;;;;;18.17;42.60;100873.34;5124555;28;19922;-57
2022/03/30 00:23:04;;;;;;;;;;;;;;;18.17;42.67;100867.97;5124075;28;20018;-57
2022/03/30 00:25:29;;;;;;;;;;;;;;;18.16;42.70;100871.66;5124345;28;19920;-57
2022/03/30 00:27:54;;;;;;;;;;;;;;;18.15;42.61;100870.00;5124130;28;19918;-58
2022/03/30 00:30:20;;;;;;;;;;;;;;;18.13;42.55;100859.38;5122646;28;19951;-57
2022/03/30 00:32:45;;;;;;;;;;;;;;;18.12;42.74;100863.06;5123413;28;19918;-58
2022/03/30 00:35:10;;;;;;;;;;;;;;;18.11;42.53;100858.72;5123820;28;20010;-57
2022/03/30 00:37:36;;;;;;;;;;;;;;;18.10;42.86;100857.03;5124352;28;19915;-57
2022/03/30 00:40:03;;;;;;;;;;;;;;;18.10;42.74;100851.66;5124276;28;19950;-57
2022/03/30 00:42:29;;;;;;;;;;;;;;;18.10;42.51;100850.81;5123906;28;19919;-57
2022/03/30 00:44:54;;;;;;;;;;;;;;;18.09;42.53;100851.81;5123787;28;19950;-57
2022/03/30 00:47:20;;;;;;;;;;;;;;;18.07;42.52;100849.28;5123836;28;19912;-57
2022/03/30 00:49:45;;;;;;;;;;;;;;;18.07;42.57;100849.28;5121086;28;19907;-57
2022/03/30 00:52:12;;;;;;;;;;;;;;;18.06;42.49;100852.16;5114913;28;19918;-57
2022/03/30 00:54:38;;;;;;;;;;;;;;;18.04;42.58;100838.84;5124235;28;19924;-58
2022/03/30 00:57:06;;;;;;;;;;;;;;;18.03;42.58;100845.22;5123878;28;19912;-58
2022/03/30 00:59:31;;;;;;;;;;;;;;;18.01;42.38;100836.50;5122286;28;19938;-57
2022/03/30 01:01:56;;;;;;;;;;;;;;;18.01;42.40;100847.25;5124010;28;19929;-58
2022/03/30 01:04:22;;;;;;;;;;;;;;;18.00;42.34;100845.56;5122715;28;19916;-58
2022/03/30 01:06:47;;;;;;;;;;;;;;;18.01;42.35;100849.09;5126548;28;19912;-58
2022/03/30 01:09:12;;;;;;;;;;;;;;;17.98;42.56;100840.34;5127773;28;19915;-56
2022/03/30 01:11:37;;;;;;;;;;;;;;;17.98;42.55;100840.34;5127742;28;19918;-58
2022/03/30 01:14:02;;;;;;;;;;;;;;;17.97;42.47;100833.28;5126115;28;19923;-58
2022/03/30 01:16:28;;;;;;;;;;;;;;;17.96;42.26;100831.59;5126513;28;19912;-57
2022/03/30 01:19:04;;;;;;;;;;;;;;;17.96;42.43;100838.81;5124159;28;19918;-57
2022/03/30 01:21:29;;;;;;;;;;;;;;;17.95;42.37;100835.28;5126716;28;19908;-58
2022/03/30 01:23:54;;;;;;;;;;;;;;;17.94;42.32;100835.47;5127230;28;19915;-58
2022/03/30 01:26:20;;;;;;;;;;;;;;;17.93;42.43;100829.25;5127921;28;19915;-57
2022/03/30 01:28:45;;;;;;;;;;;;;;;17.92;42.29;100835.59;5126646;28;19938;-58
2022/03/30 01:33:54;;;;;;;;;;;;;;;17.91;42.22;100825.03;5126304;28;19918;-58
2022/03/30 01:36:19;;;;;;;;;;;;;;;17.90;42.34;100817.97;5127575;28;20350;-58
2022/03/30 01:38:44;;;;;;;;;;;;;;;17.89;42.38;100814.44;5126784;28;19915;-56
2022/03/30 01:41:10;;;;;;;;;;;;;;;17.89;42.14;100810.91;5127664;28;19983;-53
2022/03/30 01:43:35;;;;;;;;;;;;;;;17.88;42.07;100810.06;5126703;28;19914;-58
2022/03/30 01:46:01;;;;;;;;;;;;;;;17.87;42.04;100805.69;5118068;28;20284;-58
2022/03/30 01:48:26;;;;;;;;;;;;;;;17.87;42.32;100799.47;5109934;28;20001;-58
2022/03/30 01:50:51;;;;;;;;;;;;;;;17.85;42.30;100802.31;5127410;28;19912;-57
2022/03/30 01:53:17;;;;;;;;;;;;;;;17.85;42.14;100799.63;5126756;28;19915;-57
2022/03/30 01:55:42;;;;;;;;;;;;;;;17.85;42.21;100796.13;5127162;27;20613;-57
2022/03/30 01:58:07;;;;;;;;;;;;;;;17.84;42.15;100794.41;5126624;28;19960;-57
2022/03/30 02:00:33;;;;;;;;;;;;;;;17.83;42.02;100792.72;5126776;28;19934;-57
2022/03/30 02:02:58;;;;;;;;;;;;;;;17.83;42.00;100792.72;5126005;28;20006;-57
2022/03/30 02:05:23;;;;;;;;;;;;;;;17.81;42.13;100792.06;5126393;28;20006;-58
2022/03/30 02:07:48;;;;;;;;;;;;;;;17.80;42.08;100785.84;5126687;28;20324;-57
2022/03/30 02:10:14;;;;;;;;;;;;;;;17.80;41.97;100785.84;5126779;28;19911;-57
2022/03/30 02:12:40;;;;;;;;;;;;;;;17.79;41.91;100786.84;5126511;28;19919;-58
2022/03/30 02:15:05;;;;;;;;;;;;;;;17.78;41.93;100779.78;5126416;27;19916;-56
2022/03/30 02:17:31;;;;;;;;;;;;;;;17.78;41.96;100777.09;5124071;28;19955;-58
2022/03/30 02:19:57;;;;;;;;;;;;;;;17.77;41.81;100777.25;5124997;28;19915;-58
2022/03/30 02:22:22;;;;;;;;;;;;;;;17.76;42.05;100771.03;5126499;28;19943;-57
2022/03/30 02:24:48;;;;;;;;;;;;;;;17.76;41.98;100773.75;5126075;28;19923;-57
2022/03/30 02:27:13;;;;;;;;;;;;;;;17.75;41.76;100766.66;5126460;27;19917;-55
2022/03/30 02:29:39;;;;;;;;;;;;;;;17.75;41.93;100766.66;5125723;28;19946;-56
2022/03/30 02:32:05;;;;;;;;;;;;;;;17.72;41.90;100759.75;5107994;28;20484;-57
2022/03/30 02:34:30;;;;;;;;;;;;;;;17.71;41.76;100755.38;5124907;28;19915;-57
2022/03/30 02:36:55;;;;;;;;;;;;;;;17.70;41.74;100752.81;5126491;27;19915;-55
2022/03/30 02:39:20;;;;;;;;;;;;;;;17.69;41.82;100754.69;5125661;28;19908;-57
2022/03/30 02:41:46;;;;;;;;;;;;;;;17.69;41.73;100757.38;5126056;28;19908;-57
2022/03/30 02:44:12;;;;;;;;;;;;;;;17.69;41.80;100753.84;5125980;28;19910;-57
2022/03/30 02:46:38;;;;;;;;;;;;;;;17.68;41.70;100750.31;5125904;28;19911;-56
2022/03/30 02:49:03;;;;;;;;;;;;;;;17.68;41.84;100749.47;5124928;28;19915;-56
2022/03/30 02:51:29;;;;;;;;;;;;;;;17.67;41.62;100747.78;5124299;28;19923;-57
2022/03/30 02:53:55;;;;;;;;;;;;;;;17.66;41.65;100743.41;5125868;28;19975;-57
2022/03/30 02:56:20;;;;;;;;;;;;;;;17.65;41.56;100741.72;5125787;28;19918;-57
2022/03/30 02:58:45;;;;;;;;;;;;;;;17.64;41.62;100737.38;5125325;28;19911;-57
2022/03/30 03:01:10;;;;;;;;;;;;;;;17.63;41.51;100733.00;5125798;28;19915;-56
2022/03/30 03:03:35;;;;;;;;;;;;;;;17.63;41.77;100727.63;5124158;28;19927;-57
2022/03/30 03:06:01;;;;;;;;;;;;;;;17.62;41.61;100728.63;5125842;28;19908;-54
2022/03/30 03:08:26;;;;;;;;;;;;;;;17.62;41.62;100725.91;5124949;28;19922;-57
2022/03/30 03:10:51;;;;;;;;;;;;;;;17.61;41.75;100721.56;5125694;28;19942;-58
2022/03/30 03:13:16;;;;;;;;;;;;;;;17.59;41.66;100724.41;5125190;28;19916;-57
2022/03/30 03:15:42;;;;;;;;;;;;;;;17.60;41.62;100717.19;5125208;28;19915;-57
2022/03/30 03:18:07;;;;;;;;;;;;;;;17.58;41.60;100722.72;5124496;28;19954;-54
2022/03/30 03:20:33;;;;;;;;;;;;;;;17.57;41.61;100710.28;5125395;28;19908;-58
2022/03/30 03:22:58;;;;;;;;;;;;;;;17.56;41.51;100716.69;5125111;28;19950;-56
2022/03/30 03:25:24;;;;;;;;;;;;;;;17.56;41.33;100713.16;5125152;28;19970;-58
2022/03/30 03:27:49;;;;;;;;;;;;;;;17.56;41.41;100713.16;5124702;28;19979;-56
2022/03/30 03:30:15;;;;;;;;;;;;;;;17.55;41.45;100706.09;5124499;28;19922;-57
2022/03/30 03:32:40;;;;;;;;;;;;;;;17.54;41.47;100701.72;5125051;28;19907;-58
2022/03/30 03:35:08;;;;;;;;;;;;;;;17.53;41.50;100705.41;5123894;28;19924;-56
2022/03/30 03:37:34;;;;;;;;;;;;;;;17.52;41.39;100704.56;5123998;28;19908;-57
2022/03/30 03:39:59;;;;;;;;;;;;;;;17.52;41.55;100701.03;5124726;28;19918;-56
2022/03/30 03:42:24;;;;;;;;;;;;;;;17.51;41.49;100702.06;5124903;28;19908;-58
2022/03/30 03:44:49;;;;;;;;;;;;;;;17.50;41.50;100706.59;5124518;28;19969;-57
2022/03/30 03:47:14;;;;;;;;;;;;;;;17.49;41.44;100702.19;5124988;28;19919;-58
2022/03/30 03:49:40;;;;;;;;;;;;;;;17.49;41.36;100696.81;5123936;28;19972;-58
2022/03/30 03:52:05;;;;;;;;;;;;;;;17.47;41.54;100691.63;5124508;28;19919;-57
2022/03/30 03:54:30;;;;;;;;;;;;;;;17.46;41.36;100676.50;5124600;28;19919;-58
2022/03/30 03:56:55;;;;;;;;;;;;;;;17.45;41.50;100677.50;5124663;28;19918;-58
2022/03/30 03:59:21;;;;;;;;;;;;;;;17.44;41.53;100675.81;5124399;28;19925;-58
2022/03/30 04:01:46;;;;;;;;;;;;;;;17.43;41.33;100671.47;5123488;28;19995;-58
2022/03/30 04:04:11;;;;;;;;;;;;;;;17.43;41.51;100673.31;5123370;28;19911;-58
2022/03/30 04:06:36;;;;;;;;;;;;;;;17.42;41.36;100668.94;5124906;28;19908;-58
2022/03/30 04:09:01;;;;;;;;;;;;;;;17.41;41.48;100665.38;5124119;28;19937;-58
2022/03/30 04:11:27;;;;;;;;;;;;;;;17.41;41.42;100667.25;5124969;28;19919;-57
2022/03/30 04:13:52;;;;;;;;;;;;;;;17.41;41.40;100669.94;5123846;28;19923;-56
2022/03/30 04:16:17;;;;;;;;;;;;;;;17.38;41.30;100660.38;5124646;28;19907;-56
2022/03/30 04:18:43;;;;;;;;;;;;;;;17.39;41.37;100661.19;5123229;28;19911;-56
2022/03/30 04:21:08;;;;;;;;;;;;;;;17.38;41.38;100659.53;5124028;28;19919;-56
2022/03/30 04:23:33;;;;;;;;;;;;;;;17.36;41.32;100662.38;5124236;28;20368;-57
2022/03/30 04:25:58;;;;;;;;;;;;;;;17.35;41.24;100660.69;5124657;28;19934;-58
2022/03/30 04:28:23;;;;;;;;;;;;;;;17.35;41.33;100657.16;5123816;28;19911;-57
2022/03/30 04:30:49;;;;;;;;;;;;;;;17.35;41.23;100658.00;5124251;28;19923;-58
2022/03/30 04:33:14;;;;;;;;;;;;;;;17.34;41.36;100658.19;5123099;28;19939;-57
2022/03/30 04:35:39;;;;;;;;;;;;;;;17.34;41.26;100660.88;5124299;28;20536;-58
2022/03/30 04:38:05;;;;;;;;;;;;;;;17.33;41.16;100660.03;5123546;28;19919;-57
2022/03/30 04:40:31;;;;;;;;;;;;;;;17.33;41.30;100664.53;5125196;28;19983;-57
2022/03/30 04:42:56;;;;;;;;;;;;;;;17.32;41.08;100668.22;5128115;28;19974;-57
2022/03/30 04:45:21;;;;;;;;;;;;;;;17.31;41.04;100675.44;5128453;28;19912;-56
2022/03/30 04:47:47;;;;;;;;;;;;;;;17.30;41.23;100667.56;5127716;28;19927;-54
2022/03/30 04:50:12;;;;;;;;;;;;;;;17.30;41.02;100676.47;5127664;28;19915;-57
2022/03/30 04:52:38;;;;;;;;;;;;;;;17.29;41.19;100666.72;5128156;28;19912;-55
2022/03/30 04:55:04;;;;;;;;;;;;;;;17.28;41.19;100673.09;5128196;28;19912;-56
2022/03/30 04:57:29;;;;;;;;;;;;;;;17.27;41.07;100676.78;5128162;28;19922;-55
2022/03/30 04:59:55;;;;;;;;;;;;;;;17.27;41.15;100674.09;5127483;28;19912;-57
2022/03/30 05:02:20;;;;;;;;;;;;;;;17.27;41.02;100670.56;5128165;27;19934;-56
2022/03/30 05:04:45;;;;;;;;;;;;;;;17.26;41.02;100669.72;5126080;28;19911;-56
2022/03/30 05:07:10;;;;;;;;;;;;;;;17.25;40.98;100668.06;5112594;28;19908;-55
2022/03/30 05:09:36;;;;;;;;;;;;;;;17.24;40.89;100663.66;5116505;28;19911;-57
2022/03/30 05:12:02;;;;;;;;;;;;;;;17.23;41.11;100662.81;5127627;28;20461;-58
2022/03/30 05:14:27;;;;;;;;;;;;;;;17.23;41.00;100662.00;5127150;28;19916;-56
2022/03/30 05:16:52;;;;;;;;;;;;;;;17.21;41.24;100656.78;5125300;28;19911;-55
2022/03/30 05:19:18;;;;;;;;;;;;;;;17.19;41.41;100658.78;5122814;28;19912;-53
2022/03/30 05:21:43;;;;;;;;;;;;;;;17.17;41.57;100652.75;5127414;28;19918;-54
2022/03/30 05:24:08;;;;;;;;;;;;;;;17.15;41.72;100644.00;5127203;28;19923;-56
2022/03/30 05:26:33;;;;;;;;;;;;;;;17.14;41.64;100654.91;5127256;28;19908;-53
2022/03/30 05:28:58;;;;;;;;;;;;;;;17.12;41.87;100652.41;5124071;28;19907;-57
2022/03/30 05:31:23;;;;;;;;;;;;;;;17.11;41.70;100644.50;5126953;28;19907;-56
2022/03/30 05:33:49;;;;;;;;;;;;;;;17.10;42.02;100651.72;5120183;28;19916;-56
2022/03/30 05:36:14;;;;;;;;;;;;;;;17.09;41.93;100650.03;5126835;28;19911;-57
2022/03/30 05:38:39;;;;;;;;;;;;;;;17.09;41.95;100652.72;5126550;28;19963;-55
2022/03/30 05:41:04;;;;;;;;;;;;;;;17.10;41.88;100653.56;5123913;27;19940;-54
2022/03/30 05:43:29;;;;;;;;;;;;;;;17.09;41.92;100649.19;5122245;28;19912;-54
2022/03/30 05:45:55;;;;;;;;;;;;;;;17.07;41.96;100648.50;5117069;28;20002;-56
2022/03/30 05:48:20;;;;;;;;;;;;;;;17.09;42.15;100651.88;5122647;28;19978;-55
2022/03/30 05:50:45;;;;;;;;;;;;;;;17.07;42.20;100651.19;5124286;28;20372;-54
2022/03/30 05:53:11;;;;;;;;;;;;;;;17.07;42.04;100652.03;5125869;28;19919;-57
2022/03/30 05:55:36;;;;;;;;;;;;;;;17.06;42.06;100655.72;5120960;28;19919;-53
2022/03/30 05:58:03;;;;;;;;;;;;;;;17.07;42.10;100653.88;5123780;28;19911;-56
2022/03/30 06:00:29;;;;;;;;;;;;;;;17.06;42.30;100655.72;5126455;28;19908;-56
2022/03/30 06:02:54;;;;;;;;;;;;;;;17.07;42.13;100654.72;5123348;28;20523;-55
2022/03/30 06:05:19;;;;;;;;;;;;;;;17.07;42.26;100652.03;5125659;28;19918;-56
2022/03/30 06:07:44;;;;;;;;;;;;;;;17.01;42.14;100633.88;5126396;28;19908;-53
2022/03/30 06:10:10;;;;;;;;;;;;;;;17.07;42.36;100648.50;5123280;28;19911;-56
2022/03/30 06:12:35;;;;;;;;;;;;;;;17.07;42.14;100651.19;5123283;28;19915;-57
2022/03/30 06:15:00;;;;;;;;;;;;;;;17.07;42.27;100651.19;5126238;28;20527;-56
2022/03/30 06:17:26;;;;;;;;;;;;;;;17.06;42.19;100657.56;5124575;28;20372;-55
2022/03/30 06:19:51;;;;;;;;;;;;;;;17.07;42.39;100656.56;5124216;28;20012;-55
2022/03/30 06:22:16;;;;;;;;;;;;;;;17.04;42.35;100651.53;5126646;28;19908;-53
2022/03/30 06:24:42;;;;;;;;;;;;;;;17.06;42.38;100658.41;5126296;28;19919;-56
2022/03/30 06:27:09;;;;;;;;;;;;;;;17.06;42.36;100654.88;5126195;28;19940;-56
2022/03/30 06:29:34;;;;;;;;;;;;;;;17.05;42.33;100664.78;5121417;28;19919;-54
2022/03/30 06:32:00;;;;;;;;;;;;;;;17.04;42.34;100657.75;5124363;28;19912;-53
2022/03/30 06:34:25;;;;;;;;;;;;;;;17.04;42.46;100660.44;5122300;28;20395;-53
2022/03/30 06:36:50;;;;;;;;;;;;;;;17.05;42.50;100661.28;5123544;28;19915;-57
2022/03/30 06:39:15;;;;;;;;;;;;;;;17.05;42.51;100659.41;5122674;28;19912;-55
2022/03/30 06:41:42;;;;;;;;;;;;;;;17.05;42.22;100661.28;5125844;28;19907;-56
2022/03/30 06:44:08;;;;;;;;;;;;;;;17.05;42.33;100659.41;5125832;28;19961;-54
2022/03/30 06:46:37;;;;;;;;;;;;;;;17.05;42.37;100659.41;5126201;28;19908;-55
2022/03/30 06:49:03;;;;;;;;;;;;;;;17.06;42.30;100669.16;5125032;28;19918;-53
2022/03/30 06:51:28;;;;;;;;;;;;;;;17.05;42.42;100670.16;5126287;28;20010;-55
2022/03/30 06:53:53;;;;;;;;;;;;;;;17.06;42.39;100660.25;5125419;28;19912;-53
2022/03/30 06:56:18;;;;;;;;;;;;;;;17.06;42.57;100665.63;5125909;28;19943;-54
2022/03/30 06:58:43;;;;;;;;;;;;;;;17.06;42.30;100669.16;5125526;28;19987;-55
2022/03/30 07:01:08;;;;;;;;;;;;;;;17.05;42.41;100663.97;5125613;28;19911;-54
2022/03/30 07:03:34;;;;;;;;;;;;;;;17.05;42.37;100666.66;5123907;28;19981;-54
2022/03/30 07:06:00;;;;;;;;;;;;;;;17.04;42.47;100664.97;5125638;28;20362;-53
2022/03/30 07:11:09;;;;;;;;;;;;;;;17.03;42.35;100664.09;5125801;28;19969;-55
2022/03/30 07:13:34;;;;;;;;;;;;;;;17.03;42.33;100664.09;5124633;28;19915;-51
2022/03/30 07:15:59;;;;;;;;;;;;;;;17.04;42.44;100667.66;5125523;28;19912;-54
2022/03/30 07:18:25;;;;;;;;;;;;;;;17.02;42.46;100657.06;5123976;28;20022;-55
2022/03/30 07:20:50;;;;;;;;;;;;;;;17.03;42.33;100661.41;5125595;28;19903;-56
2022/03/30 07:23:16;;;;;;;;;;;;;;;17.03;42.44;100661.41;5125143;28;19908;-54
2022/03/30 07:25:41;;;;;;;;;;;;;;;17.03;42.20;100660.56;5125324;28;19950;-53
2022/03/30 07:28:07;;;;;;;;;;;;;;;17.04;42.18;100662.28;5125064;28;19929;-52
2022/03/30 07:30:32;;;;;;;;;;;;;;;17.03;42.15;100656.03;5125470;28;19908;-54
2022/03/30 07:32:58;;;;;;;;;;;;;;;17.04;42.14;100657.75;5125131;28;20323;-53
2022/03/30 07:35:24;;;;;;;;;;;;;;;17.04;42.21;100651.53;5122950;28;19954;-54
2022/03/30 07:37:49;;;;;;;;;;;;;;;17.05;42.06;100648.69;5123284;28;19960;-56
2022/03/30 07:40:17;;;;;;;;;;;;;;;17.05;42.12;100640.63;5124949;28;19976;-55
2022/03/30 07:42:43;;;;;;;;;;;;;;;17.06;42.07;100644.16;5124536;28;19968;-53
2022/03/30 07:45:08;;;;;;;;;;;;;;;17.06;42.21;100646.84;5124769;28;19912;-53
2022/03/30 07:47:33;;;;;;;;;;;;;;;17.07;42.10;100643.13;5124684;28;19908;-55
2022/03/30 07:49:59;;;;;;;;;;;;;;;17.08;42.12;100642.16;5123725;28;20540;-53
2022/03/30 07:52:24;;;;;;;;;;;;;;;17.09;42.02;100647.34;5124953;28;19947;-53
2022/03/30 07:54:49;;;;;;;;;;;;;;;17.10;42.14;100642.81;5124627;28;19916;-55
2022/03/30 07:57:15;;;;;;;;;;;;;;;17.11;42.13;100639.13;5124849;28;19930;-54
2022/03/30 07:59:40;;;;;;;;;;;;;;;17.12;41.97;100633.59;5124582;28;19926;-55
2022/03/30 08:02:05;;;;;;;;;;;;;;;17.14;41.97;100633.44;5124681;27;19939;-56
2022/03/30 08:04:31;;;;;;;;;;;;;;;17.15;41.89;100633.25;5123573;28;20012;-54
2022/03/30 08:06:56;;;;;;;;;;;;;;;17.16;41.88;100637.66;5124678;28;19947;-54
2022/03/30 08:09:21;;;;;;;;;;;;;;;17.18;41.85;100629.41;5124303;28;20356;-52
2022/03/30 08:11:46;;;;;;;;;;;;;;;17.19;41.89;100631.91;5124901;28;19908;-55
2022/03/30 08:14:12;;;;;;;;;;;;;;;17.20;41.91;100633.63;5123957;28;19912;-56
2022/03/30 08:16:37;;;;;;;;;;;;;;;17.23;41.91;100629.75;5124686;28;19907;-56
2022/03/30 08:19:02;;;;;;;;;;;;;;;17.25;41.63;100622.38;5121024;28;19981;-57
2022/03/30 08:24:11;;;;;;;;;;;;;;;17.28;41.67;100622.03;5124092;28;19922;-54
2022/03/30 08:26:38;;;;;;;;;;;;;;;17.32;41.71;100625.22;5124458;28;19943;-55
2022/03/30 08:29:05;;;;;;;;;;;;;;;17.32;41.48;100617.19;5124154;28;19912;-57
2022/03/30 08:31:30;;;;;;;;;;;;;;;17.35;41.61;100616.84;5124628;28;19911;-56
2022/03/30 08:33:55;;;;;;;;;;;;;;;17.36;41.52;100622.06;5123234;28;19957;-54
2022/03/30 08:36:21;;;;;;;;;;;;;;;17.38;41.61;100622.75;5124400;28;19946;-53
2022/03/30 08:38:46;;;;;;;;;;;;;;;17.41;41.58;100618.88;5123661;28;19908;-56
2022/03/30 08:41:11;;;;;;;;;;;;;;;17.43;41.52;100615.00;5124532;28;19911;-56
2022/03/30 08:43:36;;;;;;;;;;;;;;;17.46;41.56;100624.59;5123998;28;19912;-56
2022/03/30 08:46:03;;;;;;;;;;;;;;;17.47;41.35;100615.53;5123101;28;19911;-54
2022/03/30 08:48:28;;;;;;;;;;;;;;;17.48;41.51;100612.66;5123355;28;20015;-55
2022/03/30 08:50:53;;;;;;;;;;;;;;;17.51;41.36;100607.97;5124387;28;19903;-51
2022/03/30 08:53:19;;;;;;;;;;;;;;;17.52;41.41;100606.97;5124075;28;19951;-53
2022/03/30 08:55:44;;;;;;;;;;;;;;;17.53;41.37;100608.63;5124089;28;19962;-56
2022/03/30 08:58:10;;;;;;;;;;;;;;;17.55;41.38;100615.53;5124120;28;19915;-56
2022/03/30 09:00:35;;;;;;;;;;;;;;;17.56;41.35;100611.00;5114953;28;19969;-56
2022/03/30 09:03:00;;;;;;;;;;;;;;;17.58;41.38;100617.88;5103593;28;19908;-54
2022/03/30 09:05:37;;;;;;;;;;;;;;;17.59;41.30;100614.19;5102754;28;19908;-54
2022/03/30 09:08:11;;;;;;;;;;;;;;;17.61;41.35;100608.66;5115731;28;19912;-54
2022/03/30 09:10:37;;;;;;;;;;;;;;;17.62;41.18;100608.47;5123996;28;19933;-56
2022/03/30 09:13:03;;;;;;;;;;;;;;;17.65;41.06;100610.00;5123845;28;19931;-54
2022/03/30 09:15:28;;;;;;;;;;;;;;;17.67;41.16;100610.66;5123948;28;19916;-52
2022/03/30 09:17:58;;;;;;;;;;;;;;;17.68;41.11;100609.66;5118678;28;19908;-52
2022/03/30 09:20:23;;;;;;;;;;;;;;;17.69;41.21;100605.97;5102682;28;19908;-54
2022/03/30 09:22:53;;;;;;;;;;;;;;;17.71;41.03;100595.88;5103456;28;19962;-56
2022/03/30 09:25:18;;;;;;;;;;;;;;;17.72;40.88;100595.72;5103241;28;20402;-55
2022/03/30 09:27:45;;;;;;;;;;;;;;;17.75;40.88;100591.88;5105966;28;19908;-54
2022/03/30 09:30:11;;;;;;;;;;;;;;;17.76;41.07;100596.25;5106893;28;19962;-56
2022/03/30 09:32:36;;;;;;;;;;;;;;;17.78;40.84;100596.91;5113719;28;19912;-55
2022/03/30 09:35:02;;;;;;;;;;;;;;;17.81;41.06;100595.75;5125724;28;19924;-56
2022/03/30 09:38:13;;;;;;;2.92;1.85;;;;;;;17.89;40.94;100590.38;5100707;27;1166766;-48
2022/03/30 09:40:47;;;;;;;2.28;1.63;;;;;;;17.94;40.82;100593.38;5131243;28;20102;-60
2022/03/30 09:43:22;;;;;;;2.20;1.83;;;;;;;17.95;40.62;100590.50;5134971;28;20076;-58
2022/03/30 09:45:49;;;;;;;2.50;1.90;;;;;;;17.97;40.59;100582.28;5136477;27;20019;-57
2022/03/30 09:48:19;;;;;;;1.77;1.65;;;;;;;18.01;40.55;100583.63;5138784;27;20062;-56
2022/03/30 09:50:53;;;;;;;2.20;1.70;;;;;;;18.03;40.77;100580.75;5129358;27;20397;-58
2022/03/30 09:53:22;;;;;;;2.17;1.67;;;;;;;18.04;40.62;100588.66;5133193;28;20022;-57
2022/03/30 09:56:07;;;;;;;1.98;1.70;;;;;;;18.07;40.64;100582.94;5127275;27;20051;-53
2022/03/30 09:58:35;;;;;;;2.00;1.60;;;;;;;18.08;40.65;100578.38;5131677;28;20058;-52
2022/03/30 10:01:10;;;;;;;2.00;1.80;;;;;;;18.11;40.85;100575.38;5133286;27;20028;-54
2022/03/30 10:03:43;;;;;;;1.58;1.48;;;;;;;18.13;40.84;100584.09;5134430;28;20023;-55
2022/03/30 10:06:12;;;;;;;2.58;1.65;;;;;;;18.13;40.92;100579.53;5129905;27;20110;-55
2022/03/30 10:08:42;;;;;;;2.05;1.70;;;;;;;18.16;40.90;100581.06;5126273;27;20020;-55
2022/03/30 10:11:10;;;;;;;2.95;2.15;;;;;;;18.17;40.73;100577.34;5134278;28;20027;-56
2022/03/30 10:13:36;;;;;;;2.20;1.67;;;;;;;18.21;40.63;100578.69;5138196;27;20041;-56
2022/03/30 10:16:01;;;;;;;1.67;1.42;;;;;;;18.22;40.90;100580.38;5134466;27;20071;-52
2022/03/30 10:18:29;;;;;;;2.20;1.58;;;;;;;18.26;40.69;100584.38;5130040;28;20035;-51
2022/03/30 10:21:26;;;;;;;1.63;1.52;;;;;;;18.28;40.81;100576.16;5135190;28;20088;-53
2022/03/30 10:24:14;;;;;;;1.70;1.40;;;;;;;18.30;40.81;100576.81;5130108;28;20027;-53
2022/03/30 10:26:50;;;;;;;1.60;1.33;;;;;;;18.32;41.01;100575.66;5127035;28;20019;-55
2022/03/30 10:29:17;;;;;;;2.28;1.50;;;;;;;18.35;40.88;100577.13;5134264;27;20043;-56
2022/03/30 10:32:12;;;;;;;1.73;1.38;;;;;;;18.39;40.73;100575.78;5129172;28;20168;-58
2022/03/30 10:35:00;;;;;;;1.70;1.40;;;;;;;18.41;40.88;100571.06;5133483;28;20084;-55
2022/03/30 10:37:28;;;;;;;1.83;1.60;;;;;;;18.43;40.82;100563.66;5127049;28;20047;-59
2022/03/30 10:40:07;;;;;;;1.40;1.30;;;;;;;18.48;40.86;100564.00;5131753;27;20055;-56
2022/03/30 10:42:47;;;;;;;1.73;1.40;;;;;;;18.50;40.88;100561.94;5130997;28;20041;-55
2022/03/30 10:45:36;;;;;;;2.25;1.60;;;;;;;18.53;40.99;100560.78;5132246;28;20690;-56
2022/03/30 10:48:14;;;;;;;1.95;1.65;;;;;;;18.56;40.71;100563.94;5128603;28;20081;-56
2022/03/30 10:50:41;;;;;;;1.50;1.40;;;;;;;18.48;40.59;100550.53;5121581;28;20056;-54
2022/03/30 10:53:31;;;;;;;1.40;1.30;;;;;;;18.62;40.84;100559.72;5122101;28;20079;-57
2022/03/30 10:56:14;;;;;;;1.45;1.30;;;;;;;18.65;40.86;100560.22;5120394;28;20023;-54
2022/03/30 10:58:49;;;;;;;2.17;1.45;;;;;;;18.67;40.65;100555.47;5119054;28;20051;-59
2022/03/30 11:01:18;;;;;;;2.35;1.52;;;;;;;18.68;40.56;100553.63;5123681;28;20037;-56
2022/03/30 11:04:05;;;;;;;1.70;1.20;;;;;;;18.73;40.41;100551.28;5114855;28;20059;-56
2022/03/30 11:06:38;;;;;;;1.45;1.15;;;;;;;18.77;40.66;100557.16;5121316;28;20035;-56
2022/03/30 11:09:07;;;;;;;1.13;1.02;;;;;;;18.78;40.63;100556.16;5116054;28;20114;-58
2022/03/30 11:11:40;;;;;;;1.13;1.00;;;;;;;18.80;40.37;100557.63;5124298;28;20027;-56
2022/03/30 11:14:27;;;;;;;1.33;1.23;;;;;;;18.84;40.40;100558.13;5123153;28;20059;-56
2022/03/30 11:16:57;;;;;;;3.10;1.42;;;;;;;18.84;40.36;100552.75;5119442;28;20038;-54
2022/03/30 11:19:29;;;;;;;2.10;1.38;;;;;;;18.85;40.57;100549.84;5125012;28;20028;-54
2022/03/30 11:22:12;;;;;;;1.45;1.10;;;;;;;18.89;40.44;100551.19;5107336;27;20024;-58
2022/03/30 11:24:41;;;;;;;1.08;0.98;;;;;;;18.90;40.34;100541.25;5105697;28;20035;-58
2022/03/30 11:27:06;;;;;;;1.30;1.08;;;;;;;18.92;40.17;100541.91;5105917;28;20008;-58
2022/03/30 11:29:40;;;;;;;1.27;1.00;;;;;;;18.95;40.18;100545.09;5105617;28;20394;-59
2022/03/30 11:32:24;;;;;;;1.13;1.02;;;;;;;18.97;40.40;100536.84;5105498;28;20554;-58
2022/03/30 11:34:54;;;;;;;1.45;1.17;;;;;;;18.97;40.24;100540.38;5103169;28;20515;-58
2022/03/30 11:37:26;;;;;;;1.00;0.90;;;;;;;19.00;40.38;100532.97;5117942;28;20086;-59
2022/03/30 11:40:00;;;;;;;1.60;1.30;;;;;;;19.00;40.28;100530.25;5125676;28;20030;-59
2022/03/30 11:42:25;;;;;;;1.10;1.00;;;;;;;19.02;40.28;100533.59;5125676;28;20854;-59
2022/03/30 11:47:35;;;;;;;1.35;1.15;;;;;;;19.00;40.25;100522.19;5105608;28;20073;-59
2022/03/30 11:50:00;;;;;;;1.10;1.00;;;;;;;19.03;40.00;100519.97;5103986;28;20028;-59
2022/03/30 11:52:26;;;;;;;1.13;0.98;;;;;;;19.05;40.23;100522.47;5105070;28;20028;-59
2022/03/30 11:54:53;;;;;;;1.23;0.90;;;;;;;19.07;40.09;100515.88;5105221;28;20031;-59
2022/03/30 11:57:19;;;;;;;1.75;1.00;;;;;;;19.08;40.03;100511.34;5119898;28;20028;-58
2022/03/30 11:59:55;;;;;;;1.10;0.80;;;;;;;19.10;39.92;100514.69;5124396;28;20027;-59
2022/03/30 12:02:27;;;;;;;1.15;0.93;;;;;;;19.10;40.07;100515.53;5125240;28;20423;-57
2022/03/30 12:04:54;;;;;;;0.90;0.90;;;;;;;19.08;40.09;100508.66;5124467;28;20024;-57
2022/03/30 12:07:19;;;;;;;0.98;0.90;;;;;;;19.11;40.17;100505.56;5124860;28;20053;-59
2022/03/30 12:09:53;;;;;;;0.80;0.70;;;;;;;19.13;39.92;100508.94;5124834;28;20028;-58
2022/03/30 12:12:36;;;;;;;1.13;0.90;;;;;;;19.13;40.17;100498.16;5125082;28;20032;-55
2022/03/30 12:15:12;;;;;;;1.13;0.75;;;;;;;19.12;39.92;100501.88;5124876;28;20023;-57
2022/03/30 12:17:39;;;;;;;0.80;0.80;;;;;;;19.12;40.25;100502.72;5123955;28;20031;-56
2022/03/30 12:20:06;;;;;;;1.35;1.23;;;;;;;19.13;40.02;100500.88;5124051;28;20027;-57
2022/03/30 12:22:33;;;;;;;1.58;1.20;;;;;;;19.11;39.96;100500.19;5125183;28;20038;-57
2022/03/30 12:24:58;;;;;;;1.40;0.90;;;;;;;19.14;40.07;100494.44;5125112;28;20099;-57
2022/03/30 12:27:24;;;;;;;1.02;0.90;;;;;;;19.14;39.87;100499.84;5125010;28;20031;-56
2022/03/30 12:29:56;;;;;;;1.33;1.00;;;;;;;19.16;40.11;100500.50;5105478;28;20024;-57